SBDN/PPB METAR and TAF weather

Enter ICAO airport designator
Station Type Date Time Source
SBDN METAR 2021/05/14 08:00 UTC NOAA

SBDN 140800Z 13011KT CAVOK 15/13 Q1018


Station Type Date Time Source
SBDN Decoded METAR 2021/05/14 08:00 UTC NOAA

Presidente Prudente, Brazil (SBDN) 22-07S 051-23W
May 14, 2021 - 04:00 AM EDT / 2021.05.14 0800 UTC
Wind: from the SE (130 degrees) at 13 MPH (11 KT):0
Visibility: greater than 7 mile(s):0
Temperature: 59 F (15 C)
Dew Point: 55 F (13 C)
Relative Humidity: 87%
Pressure (altimeter): 30.06 in. Hg (1018 hPa)
ob: SBDN 140800Z 13011KT CAVOK 15/13 Q1018
cycle: 8

Station Type Date Time Source
SBDN TAF 2021/05/14 06:27 UTC NOAA

TAF SBDN 140215Z 1406/1418 13008KT CAVOK TN14/1410Z TX27/1417Z
BECMG 1414/1416 SCT040
RMK PGG

Example: see airport list